Time;durP1;ratioP1;P1;durP2;ratioP2;P2;SDS_P1;SDS_P2;PMS_P1;PMS_P2;Temp;Humidity;BMP_temperature;BMP_pressure;BME280_temperature;BME280_humidity;BME280_pressure;Samples;Min_cycle;Max_cycle;Signal;HPM_P1;HPM_P2
2021/12/03 00:00:17;;;;;;;6.10;2.67;;;0.90;99.90;;;;;;5004062;28;20210;-41
2021/12/03 00:02:44;;;;;;;2.53;2.10;;;1.00;99.90;;;;;;5004144;28;20282;-41
2021/12/03 00:05:11;;;;;;;3.27;2.33;;;1.00;99.90;;;;;;4954546;28;20703;-41
2021/12/03 00:07:41;;;;;;;6.17;2.50;;;0.90;99.90;;;;;;4999880;28;20688;-41
2021/12/03 00:10:09;;;;;;;3.20;2.37;;;0.90;99.90;;;;;;4981212;28;20237;-41
2021/12/03 00:12:38;;;;;;;3.03;2.33;;;0.80;99.90;;;;;;5006616;28;20224;-41
2021/12/03 00:15:05;;;;;;;6.20;2.83;;;0.70;99.90;;;;;;4997037;28;20919;-41
2021/12/03 00:17:34;;;;;;;3.93;2.40;;;0.70;99.90;;;;;;5004306;28;20227;-41
2021/12/03 00:20:01;;;;;;;3.60;2.10;;;0.50;99.90;;;;;;4972007;28;20320;-41
2021/12/03 00:22:28;;;;;;;3.23;2.50;;;0.50;99.90;;;;;;5001877;28;20226;-41
2021/12/03 00:24:55;;;;;;;3.30;2.70;;;0.50;99.90;;;;;;4982142;28;20212;-41
2021/12/03 00:27:22;;;;;;;3.83;2.60;;;0.40;99.90;;;;;;4989585;28;20213;-41
2021/12/03 00:29:50;;;;;;;3.83;2.43;;;0.60;99.90;;;;;;4993221;28;20202;-41
2021/12/03 00:32:16;;;;;;;2.87;2.20;;;0.60;99.90;;;;;;4991589;28;20210;-44
2021/12/03 00:34:45;;;;;;;6.97;2.90;;;0.60;99.90;;;;;;4980563;28;20907;-45
2021/12/03 00:37:12;;;;;;;3.77;2.17;;;0.50;99.90;;;;;;5005524;28;20229;-45
2021/12/03 00:39:39;;;;;;;3.17;2.30;;;0.60;99.90;;;;;;4995188;28;20618;-44
2021/12/03 00:42:07;;;;;;;4.57;2.30;;;0.60;99.90;;;;;;4988236;28;21607;-44
2021/12/03 00:44:33;;;;;;;3.13;2.30;;;0.60;99.90;;;;;;5000327;28;20622;-44
2021/12/03 00:47:00;;;;;;;6.27;2.77;;;0.60;99.90;;;;;;4986371;28;20213;-44
2021/12/03 00:49:28;;;;;;;4.90;2.60;;;0.60;99.90;;;;;;5000957;28;20203;-44
2021/12/03 00:51:56;;;;;;;3.77;2.30;;;0.60;99.90;;;;;;4970814;28;20719;-45
2021/12/03 00:54:23;;;;;;;3.90;2.57;;;0.60;99.90;;;;;;4993546;28;20222;-44
2021/12/03 00:56:50;;;;;;;5.70;2.60;;;0.60;99.90;;;;;;4988210;28;20890;-44
2021/12/03 00:59:17;;;;;;;8.23;2.97;;;0.60;99.90;;;;;;4989986;28;20209;-45
2021/12/03 01:01:44;;;;;;;4.30;2.63;;;0.60;99.90;;;;;;4991077;28;20202;-47
2021/12/03 01:04:11;;;;;;;4.83;2.33;;;0.60;99.90;;;;;;4983307;28;20233;-47
2021/12/03 01:06:38;;;;;;;4.17;2.37;;;0.60;99.90;;;;;;4979432;28;20217;-46
2021/12/03 01:09:06;;;;;;;8.83;2.33;;;0.60;99.90;;;;;;4991235;28;20744;-46
2021/12/03 01:11:33;;;;;;;3.60;2.40;;;0.50;99.90;;;;;;4993966;28;20232;-47
2021/12/03 01:14:01;;;;;;;2.50;2.20;;;0.60;99.90;;;;;;4995009;28;20242;-46
2021/12/03 01:16:28;;;;;;;4.80;2.50;;;0.70;99.90;;;;;;5001801;28;20205;-47
2021/12/03 01:18:56;;;;;;;3.40;2.50;;;0.70;99.90;;;;;;4992003;28;20704;-47
2021/12/03 01:21:23;;;;;;;3.07;2.07;;;0.70;99.90;;;;;;4996751;28;20200;-47
2021/12/03 01:23:50;;;;;;;3.83;2.70;;;0.60;99.90;;;;;;4979375;28;20241;-47
2021/12/03 01:26:20;;;;;;;4.00;2.40;;;0.60;99.90;;;;;;4990577;28;20216;-47
2021/12/03 01:28:48;;;;;;;3.43;2.53;;;0.60;99.90;;;;;;4996166;28;20219;-47
2021/12/03 01:31:17;;;;;;;4.63;2.40;;;0.60;99.90;;;;;;4981591;28;21036;-47
2021/12/03 01:33:46;;;;;;;4.03;2.60;;;0.50;99.90;;;;;;5001043;28;20232;-47
2021/12/03 01:36:13;;;;;;;6.33;2.13;;;0.30;99.90;;;;;;4993488;28;20196;-47
2021/12/03 01:38:40;;;;;;;3.60;2.23;;;0.20;99.90;;;;;;4975762;28;20214;-47
2021/12/03 01:41:07;;;;;;;4.43;2.80;;;0.20;99.90;;;;;;4994354;28;20296;-47
2021/12/03 01:43:37;;;;;;;4.80;2.50;;;0.30;99.90;;;;;;5003976;28;20369;-47
2021/12/03 01:46:06;;;;;;;4.00;2.47;;;0.30;99.90;;;;;;4992976;28;20206;-47
2021/12/03 01:48:34;;;;;;;5.13;2.73;;;0.30;99.90;;;;;;5008162;28;20203;-47
2021/12/03 01:51:02;;;;;;;5.00;2.53;;;0.40;99.90;;;;;;5001664;28;20227;-46
2021/12/03 01:53:30;;;;;;;3.40;2.40;;;0.50;99.90;;;;;;4990014;28;20229;-47
2021/12/03 01:56:02;;;;;;;6.47;2.40;;;0.40;99.90;;;;;;4991441;28;20746;-47
2021/12/03 01:58:29;;;;;;;2.67;2.37;;;0.40;99.90;;;;;;4979120;28;20768;-47
2021/12/03 02:01:01;;;;;;;2.40;2.00;;;0.30;99.90;;;;;;4983514;28;20256;-46
2021/12/03 02:03:31;;;;;;;5.10;2.53;;;0.30;99.90;;;;;;5010862;28;21007;-48
2021/12/03 02:05:59;;;;;;;5.97;2.47;;;0.30;99.90;;;;;;4984500;28;20208;-46
2021/12/03 02:08:26;;;;;;;10.83;2.37;;;0.30;99.90;;;;;;5001828;28;20984;-47
2021/12/03 02:10:54;;;;;;;5.30;2.57;;;0.30;99.90;;;;;;4979694;28;20221;-46
2021/12/03 02:13:21;;;;;;;3.60;2.10;;;0.30;99.90;;;;;;4985367;28;20230;-47
2021/12/03 02:15:48;;;;;;;4.57;2.63;;;0.30;99.90;;;;;;4997445;28;20206;-47
2021/12/03 02:18:18;;;;;;;3.47;2.50;;;0.40;99.90;;;;;;4998650;28;20205;-47
2021/12/03 02:20:46;;;;;;;4.23;2.60;;;0.40;99.90;;;;;;4986450;28;20673;-47
2021/12/03 02:23:14;;;;;;;7.80;2.13;;;0.40;99.90;;;;;;4994191;28;20244;-47
2021/12/03 02:25:42;;;;;;;3.60;2.50;;;0.40;99.90;;;;;;4974000;28;20222;-47
2021/12/03 02:28:10;;;;;;;2.40;2.20;;;0.40;99.90;;;;;;4995610;28;20218;-47
2021/12/03 02:30:38;;;;;;;3.17;2.47;;;0.40;99.90;;;;;;4995575;28;20767;-47
2021/12/03 02:33:05;;;;;;;3.07;2.67;;;0.40;99.90;;;;;;4991965;28;20236;-47
2021/12/03 02:35:32;;;;;;;3.47;2.50;;;0.50;99.90;;;;;;4993168;28;20865;-47
2021/12/03 02:38:02;;;;;;;5.37;2.97;;;0.50;99.90;;;;;;4994448;28;20360;-47
2021/12/03 02:40:29;;;;;;;4.23;2.50;;;0.50;99.90;;;;;;4978664;28;20207;-47
2021/12/03 02:42:56;;;;;;;4.57;2.60;;;0.60;99.90;;;;;;4997188;28;20218;-51
2021/12/03 02:45:23;;;;;;;4.03;2.63;;;0.60;99.90;;;;;;5002412;28;20766;-47
2021/12/03 02:47:51;;;;;;;3.37;2.40;;;0.60;99.90;;;;;;5001725;28;21047;-54
2021/12/03 02:50:19;;;;;;;3.83;2.53;;;0.60;99.90;;;;;;4995659;28;20231;-47
2021/12/03 02:52:48;;;;;;;5.60;2.53;;;0.60;99.90;;;;;;4986645;28;20234;-47
2021/12/03 02:55:17;;;;;;;3.00;2.37;;;0.60;99.90;;;;;;4995680;28;20239;-47
2021/12/03 02:57:44;;;;;;;2.97;2.40;;;0.70;99.90;;;;;;4985575;28;21040;-47
2021/12/03 03:00:15;;;;;;;4.10;3.10;;;0.70;99.90;;;;;;5010344;28;20217;-47
2021/12/03 03:02:42;;;;;;;8.97;2.60;;;0.70;99.90;;;;;;4999376;28;20222;-47
2021/12/03 03:05:11;;;;;;;3.40;2.63;;;0.70;99.90;;;;;;4981049;28;20219;-47
2021/12/03 03:07:38;;;;;;;5.23;2.50;;;0.70;99.90;;;;;;5006304;28;20876;-47
2021/12/03 03:10:09;;;;;;;5.33;2.80;;;0.70;99.90;;;;;;4997938;28;20212;-47
2021/12/03 03:12:37;;;;;;;6.97;2.53;;;0.80;99.90;;;;;;4965269;28;20951;-46
2021/12/03 03:15:06;;;;;;;5.83;2.70;;;0.80;99.90;;;;;;4998269;28;20217;-47
2021/12/03 03:17:34;;;;;;;9.87;2.80;;;0.80;99.90;;;;;;4976500;28;21308;-47
2021/12/03 03:20:02;;;;;;;3.97;2.57;;;0.80;99.90;;;;;;4997774;28;20206;-47
2021/12/03 03:22:30;;;;;;;2.37;2.17;;;0.80;99.90;;;;;;5012824;28;20237;-46
2021/12/03 03:24:59;;;;;;;5.00;2.30;;;0.90;99.90;;;;;;5000732;28;20227;-47
2021/12/03 03:27:28;;;;;;;6.53;2.33;;;0.90;99.90;;;;;;4980518;28;20221;-47
2021/12/03 03:29:56;;;;;;;6.63;2.70;;;0.90;99.90;;;;;;4989928;28;20921;-47
2021/12/03 03:32:25;;;;;;;3.33;2.47;;;0.90;99.90;;;;;;4983131;28;20233;-47
2021/12/03 03:34:52;;;;;;;3.77;2.30;;;0.90;99.90;;;;;;4990256;28;20223;-47
2021/12/03 03:37:19;;;;;;;4.10;2.27;;;1.00;99.90;;;;;;4992700;28;20688;-47
2021/12/03 03:39:47;;;;;;;2.47;2.20;;;0.90;99.90;;;;;;4992148;28;20198;-47
2021/12/03 03:42:15;;;;;;;3.50;2.23;;;1.00;99.90;;;;;;4981628;28;20753;-47
2021/12/03 03:44:42;;;;;;;4.50;2.60;;;1.00;99.90;;;;;;5002152;28;20204;-46
2021/12/03 03:47:12;;;;;;;5.37;2.23;;;1.00;99.90;;;;;;4997787;28;20219;-44
2021/12/03 03:50:29;;;;;;;2.37;2.10;;;1.00;99.90;;;;;;4989827;28;20644;-44
2021/12/03 03:52:57;;;;;;;6.17;2.43;;;1.10;99.90;;;;;;4998326;28;20878;-44
2021/12/03 03:55:24;;;;;;;5.63;2.27;;;1.10;99.90;;;;;;4994481;28;20210;-44
2021/12/03 03:57:53;;;;;;;4.23;2.57;;;1.10;99.90;;;;;;4972366;28;20223;-44
2021/12/03 04:00:23;;;;;;;2.87;2.40;;;1.10;99.90;;;;;;4990131;28;20211;-44
2021/12/03 04:02:51;;;;;;;6.10;2.93;;;1.10;99.90;;;;;;4985906;28;20697;-44
2021/12/03 04:05:18;;;;;;;3.60;2.60;;;1.20;99.90;;;;;;4994702;28;20228;-45
2021/12/03 04:07:45;;;;;;;3.23;2.33;;;1.20;99.90;;;;;;4990467;28;20218;-44
2021/12/03 04:10:12;;;;;;;6.20;2.97;;;1.20;99.90;;;;;;4991518;28;20209;-44
2021/12/03 04:12:40;;;;;;;3.63;2.57;;;1.20;99.90;;;;;;4999988;28;20228;-44
2021/12/03 04:15:10;;;;;;;4.53;2.80;;;1.20;99.90;;;;;;4986233;28;20229;-45
2021/12/03 04:17:38;;;;;;;4.77;2.63;;;1.20;99.90;;;;;;4992440;28;20196;-44
2021/12/03 04:20:09;;;;;;;2.60;2.40;;;1.30;99.90;;;;;;5001246;28;20209;-44
2021/12/03 04:22:36;;;;;;;3.53;2.70;;;1.30;99.90;;;;;;4973800;28;20230;-45
2021/12/03 04:25:06;;;;;;;6.10;3.00;;;1.30;99.90;;;;;;5006581;28;20206;-45
2021/12/03 04:27:34;;;;;;;7.10;3.13;;;1.30;99.90;;;;;;4985952;28;20205;-45
2021/12/03 04:30:01;;;;;;;8.00;2.97;;;1.30;99.90;;;;;;4986896;28;20214;-45
2021/12/03 04:32:28;;;;;;;3.07;2.77;;;1.30;99.90;;;;;;4984146;28;20226;-47
2021/12/03 04:34:55;;;;;;;3.70;3.13;;;1.30;99.90;;;;;;4982318;28;20223;-44
2021/12/03 04:37:23;;;;;;;6.90;3.60;;;1.20;99.90;;;;;;4978117;28;20209;-44
2021/12/03 04:39:51;;;;;;;3.27;2.90;;;1.30;99.90;;;;;;4992259;28;20202;-44
2021/12/03 04:42:19;;;;;;;5.93;3.03;;;1.20;99.90;;;;;;5007334;28;20207;-44
2021/12/03 04:44:45;;;;;;;11.57;3.50;;;1.20;99.90;;;;;;4985764;28;20212;-45
2021/12/03 04:47:12;;;;;;;7.60;3.03;;;1.20;99.90;;;;;;4979495;28;20210;-44
2021/12/03 04:49:40;;;;;;;5.97;3.47;;;1.20;99.90;;;;;;5006880;28;20211;-44
2021/12/03 04:52:09;;;;;;;4.87;2.97;;;1.20;99.90;;;;;;4990570;28;20237;-45
2021/12/03 04:54:37;;;;;;;4.80;3.17;;;1.20;99.90;;;;;;5007722;28;20211;-44
2021/12/03 04:57:05;;;;;;;5.13;3.00;;;1.20;99.90;;;;;;4992340;28;20210;-45
2021/12/03 04:59:31;;;;;;;5.37;3.17;;;1.20;99.90;;;;;;4987249;28;20534;-45
2021/12/03 05:01:59;;;;;;;5.13;3.33;;;1.20;99.90;;;;;;4977852;28;20204;-44
2021/12/03 05:04:26;;;;;;;4.47;2.93;;;1.20;99.90;;;;;;4969809;28;20341;-44
2021/12/03 05:06:55;;;;;;;6.70;3.70;;;1.20;99.90;;;;;;4988936;28;20209;-45
2021/12/03 05:09:22;;;;;;;3.63;2.90;;;1.20;99.90;;;;;;4996254;28;20227;-45
2021/12/03 05:11:51;;;;;;;13.10;3.90;;;1.20;99.90;;;;;;5004277;28;20216;-45
2021/12/03 05:14:18;;;;;;;4.27;3.40;;;1.20;99.90;;;;;;5000823;28;20235;-44
2021/12/03 05:16:48;;;;;;;5.07;3.70;;;1.20;99.90;;;;;;4985564;28;20202;-44
2021/12/03 05:19:15;;;;;;;5.63;3.50;;;1.20;99.90;;;;;;4975701;28;20215;-41
2021/12/03 05:21:42;;;;;;;7.97;3.70;;;1.20;99.90;;;;;;4987231;28;20206;-42
2021/12/03 05:24:10;;;;;;;7.20;3.77;;;1.20;99.90;;;;;;4987482;28;20233;-41
2021/12/03 05:26:38;;;;;;;6.80;3.93;;;1.30;99.90;;;;;;4986822;28;20220;-41
2021/12/03 05:29:09;;;;;;;7.20;3.90;;;1.30;99.90;;;;;;5000504;28;20284;-41
2021/12/03 05:31:37;;;;;;;7.33;3.87;;;1.30;99.90;;;;;;4959419;28;20233;-41
2021/12/03 05:34:05;;;;;;;8.17;4.40;;;1.30;99.90;;;;;;4984775;28;20252;-41
2021/12/03 05:36:32;;;;;;;6.77;4.47;;;1.30;99.90;;;;;;4987484;28;24986;-41
2021/12/03 05:38:59;;;;;;;6.13;4.17;;;1.30;99.90;;;;;;4985627;28;20214;-41
2021/12/03 05:41:26;;;;;;;7.07;4.33;;;1.30;99.90;;;;;;4989960;28;20212;-41
2021/12/03 05:43:53;;;;;;;5.80;4.27;;;1.30;99.90;;;;;;5002378;28;20336;-41
2021/12/03 05:46:21;;;;;;;11.13;4.77;;;1.30;99.90;;;;;;4974170;28;20900;-41
2021/12/03 05:48:48;;;;;;;6.13;4.13;;;1.20;99.90;;;;;;4981408;28;20217;-41
2021/12/03 05:51:15;;;;;;;6.53;4.30;;;1.20;99.90;;;;;;5001877;28;20236;-41
2021/12/03 05:53:42;;;;;;;6.63;4.77;;;1.30;99.90;;;;;;4971400;28;20242;-41
2021/12/03 05:56:08;;;;;;;8.53;4.73;;;1.20;99.90;;;;;;4998680;28;20495;-41
2021/12/03 05:58:35;;;;;;;7.23;4.70;;;1.20;99.90;;;;;;4988171;28;20944;-41
2021/12/03 06:01:03;;;;;;;6.13;4.63;;;1.20;99.90;;;;;;4988432;28;20201;-41
2021/12/03 06:03:31;;;;;;;7.00;4.77;;;1.20;99.90;;;;;;4952862;28;20238;-41
2021/12/03 06:05:58;;;;;;;8.03;4.63;;;1.20;99.90;;;;;;4943953;28;20637;-41
2021/12/03 06:08:25;;;;;;;5.30;4.50;;;1.20;99.90;;;;;;4961741;28;20218;-41
2021/12/03 06:10:52;;;;;;;5.83;4.93;;;1.20;99.90;;;;;;4960081;28;20214;-41
2021/12/03 06:13:19;;;;;;;8.40;4.93;;;1.20;99.90;;;;;;4991907;28;20220;-41
2021/12/03 06:15:46;;;;;;;5.00;4.60;;;1.20;99.90;;;;;;4988571;28;20208;-41
2021/12/03 06:18:13;;;;;;;8.20;5.00;;;1.20;99.90;;;;;;4967122;28;21544;-42
2021/12/03 06:20:41;;;;;;;6.13;5.53;;;1.10;99.90;;;;;;4986957;28;20210;-41
2021/12/03 06:23:08;;;;;;;9.10;5.77;;;1.10;99.90;;;;;;4986512;28;20230;-41
2021/12/03 06:25:35;;;;;;;7.80;5.80;;;1.10;99.90;;;;;;4988660;28;20202;-41
2021/12/03 06:28:02;;;;;;;7.97;5.53;;;1.10;99.90;;;;;;4998309;28;20206;-41
2021/12/03 06:30:29;;;;;;;8.27;5.73;;;1.10;99.90;;;;;;5010539;28;20208;-41
2021/12/03 06:32:56;;;;;;;8.63;5.10;;;1.10;99.90;;;;;;4984873;28;21978;-42
2021/12/03 06:35:23;;;;;;;10.33;5.80;;;1.20;99.90;;;;;;5005668;28;20205;-41
2021/12/03 06:37:52;;;;;;;5.60;5.10;;;1.20;99.90;;;;;;4970935;28;21206;-41
2021/12/03 06:40:21;;;;;;;8.80;5.70;;;1.10;99.90;;;;;;4993256;28;20733;-41
2021/12/03 06:42:48;;;;;;;13.90;5.97;;;1.20;99.90;;;;;;5000355;28;20232;-41
2021/12/03 06:45:16;;;;;;;7.77;6.20;;;1.20;99.90;;;;;;5010848;28;20213;-41
2021/12/03 06:47:43;;;;;;;12.23;7.00;;;1.20;99.90;;;;;;5004367;28;20209;-41
2021/12/03 06:50:17;;;;;;;9.50;7.20;;;1.20;99.90;;;;;;4990455;28;20212;-41
2021/12/03 06:52:46;;;;;;;9.40;7.43;;;1.20;99.90;;;;;;4998571;28;20392;-41
2021/12/03 06:55:15;;;;;;;10.27;7.77;;;1.20;99.90;;;;;;4977364;28;20214;-41
2021/12/03 06:57:44;;;;;;;9.63;8.00;;;1.20;99.90;;;;;;5003049;28;20206;-41
2021/12/03 07:00:12;;;;;;;11.33;7.27;;;1.20;99.90;;;;;;4999199;28;20239;-42
2021/12/03 07:02:39;;;;;;;10.10;6.90;;;1.20;99.90;;;;;;5007776;28;20221;-41
2021/12/03 07:05:08;;;;;;;10.97;7.03;;;1.20;99.90;;;;;;4985203;28;20212;-42
2021/12/03 07:07:35;;;;;;;10.87;6.37;;;1.20;99.90;;;;;;4996377;28;20212;-41
2021/12/03 07:10:02;;;;;;;9.70;7.40;;;1.20;99.90;;;;;;4993840;28;20218;-41
2021/12/03 07:12:31;;;;;;;11.73;7.17;;;1.20;99.90;;;;;;5002417;28;20239;-41
2021/12/03 07:14:58;;;;;;;13.83;6.77;;;1.20;99.90;;;;;;5005439;28;20206;-42
2021/12/03 07:17:29;;;;;;;13.30;7.20;;;1.20;99.90;;;;;;5005796;28;20288;-41
2021/12/03 07:19:57;;;;;;;12.43;7.90;;;1.20;99.90;;;;;;4990804;28;20220;-41
2021/12/03 07:22:24;;;;;;;10.27;8.10;;;1.10;99.90;;;;;;5004096;28;20877;-41
2021/12/03 07:24:51;;;;;;;10.23;8.60;;;1.20;99.90;;;;;;4997861;28;20221;-41
2021/12/03 07:27:19;;;;;;;10.43;8.90;;;1.20;99.90;;;;;;4994422;28;20213;-41
2021/12/03 07:29:48;;;;;;;14.73;10.20;;;1.20;99.90;;;;;;5011588;28;20215;-41
2021/12/03 07:32:16;;;;;;;10.47;8.87;;;1.20;99.90;;;;;;5010885;28;20228;-41
2021/12/03 07:34:43;;;;;;;13.87;9.23;;;1.20;99.90;;;;;;5009842;28;20591;-41
2021/12/03 07:37:10;;;;;;;17.77;10.50;;;1.20;99.90;;;;;;4980100;28;20210;-41
2021/12/03 07:39:38;;;;;;;17.13;9.97;;;1.20;99.90;;;;;;5009909;28;20202;-42
2021/12/03 07:42:05;;;;;;;14.97;10.37;;;1.20;99.90;;;;;;4992482;28;20229;-41
2021/12/03 07:44:33;;;;;;;17.07;11.27;;;1.20;99.90;;;;;;5002025;28;20976;-42
2021/12/03 07:47:01;;;;;;;14.43;11.20;;;1.20;99.90;;;;;;5009805;28;20290;-41
2021/12/03 07:49:28;;;;;;;16.77;12.50;;;1.20;99.90;;;;;;5008426;28;20206;-41
2021/12/03 07:51:56;;;;;;;16.77;12.83;;;1.20;99.90;;;;;;4986024;28;20211;-41
2021/12/03 07:54:24;;;;;;;18.20;12.57;;;1.30;99.90;;;;;;4995757;28;20229;-41
2021/12/03 07:56:51;;;;;;;17.17;12.10;;;1.30;99.90;;;;;;4995502;28;20213;-41
2021/12/03 07:59:18;;;;;;;20.47;11.77;;;1.30;99.90;;;;;;4993139;28;20220;-42
2021/12/03 08:01:46;;;;;;;15.80;12.10;;;1.30;99.90;;;;;;5013755;28;20214;-42
2021/12/03 08:04:15;;;;;;;15.70;11.80;;;1.40;99.90;;;;;;5010397;28;20222;-41
2021/12/03 08:06:43;;;;;;;20.13;11.97;;;1.40;99.90;;;;;;4987613;28;20213;-41
2021/12/03 08:09:12;;;;;;;15.37;11.60;;;1.40;99.90;;;;;;4990728;28;20721;-42
2021/12/03 08:11:39;;;;;;;15.53;11.67;;;1.40;99.90;;;;;;5000236;28;20199;-41
2021/12/03 08:14:07;;;;;;;17.30;12.27;;;1.50;99.90;;;;;;4990513;28;20717;-42
2021/12/03 08:16:34;;;;;;;18.07;11.60;;;1.50;99.90;;;;;;5009546;28;20211;-41
2021/12/03 08:19:01;;;;;;;17.17;12.27;;;1.50;99.90;;;;;;5005526;28;20233;-41
2021/12/03 08:21:30;;;;;;;17.50;12.20;;;1.50;99.90;;;;;;4996550;28;20224;-41
2021/12/03 08:23:57;;;;;;;17.97;12.63;;;1.50;99.90;;;;;;5011083;28;20252;-42
2021/12/03 08:26:24;;;;;;;20.00;12.50;;;1.50;99.90;;;;;;5004756;28;20364;-41
2021/12/03 08:28:51;;;;;;;19.43;13.47;;;1.60;99.90;;;;;;5001486;28;20214;-41
2021/12/03 08:31:18;;;;;;;20.00;13.30;;;1.60;99.90;;;;;;5006728;28;20202;-41
2021/12/03 08:33:46;;;;;;;18.97;13.37;;;1.50;99.90;;;;;;5010216;28;20230;-41
2021/12/03 08:36:13;;;;;;;21.47;13.73;;;1.60;99.90;;;;;;5007974;28;20198;-41
2021/12/03 08:38:42;;;;;;;21.70;13.67;;;1.50;99.90;;;;;;4993955;28;20324;-42
2021/12/03 08:41:15;;;;;;;21.63;13.83;;;1.60;99.90;;;;;;4997243;28;20299;-41
2021/12/03 08:43:42;;;;;;;20.23;13.73;;;1.60;99.90;;;;;;5009183;28;20226;-41
2021/12/03 08:46:12;;;;;;;21.57;13.83;;;1.60;99.90;;;;;;4993657;28;20821;-41
2021/12/03 08:48:42;;;;;;;19.37;13.60;;;1.60;99.90;;;;;;5013114;28;20984;-41
2021/12/03 08:51:21;;;;;;;20.07;13.73;;;1.70;99.90;;;;;;4999070;28;20299;-41
2021/12/03 08:56:34;;;;;;;21.77;13.57;;;1.70;99.90;;;;;;5012931;28;20211;-41
2021/12/03 08:59:01;;;;;;;22.07;14.00;;;1.70;99.90;;;;;;5007873;28;20209;-41
2021/12/03 09:01:28;;;;;;;23.60;14.93;;;1.70;99.90;;;;;;5007748;28;20216;-41
2021/12/03 09:03:55;;;;;;;25.37;14.47;;;1.70;99.90;;;;;;5008947;28;20220;-41
2021/12/03 09:06:21;;;;;;;20.00;13.73;;;1.70;99.90;;;;;;5014691;28;20233;-41
2021/12/03 09:08:50;;;;;;;23.40;14.93;;;1.70;99.90;;;;;;5013083;28;20292;-41
2021/12/03 09:11:17;;;;;;;22.50;13.27;;;1.70;99.90;;;;;;4985347;28;20206;-41
2021/12/03 09:13:46;;;;;;;25.53;14.13;;;1.70;99.90;;;;;;5010934;28;20325;-41
2021/12/03 09:16:17;;;;;;;23.70;15.03;;;1.80;99.90;;;;;;4993745;28;20308;-41
2021/12/03 09:18:45;;;;;;;21.57;14.10;;;1.80;99.90;;;;;;5005475;28;20214;-41
2021/12/03 09:21:15;;;;;;;25.87;15.87;;;1.80;99.90;;;;;;5002906;28;20225;-43
2021/12/03 09:23:53;;;;;;;23.67;15.00;;;1.80;99.90;;;;;;5019475;28;20295;-41
2021/12/03 09:26:24;;;;;;;23.37;14.93;;;1.80;99.90;;;;;;4994299;28;20470;-41
2021/12/03 09:28:57;;;;;;;28.67;16.13;;;1.90;99.90;;;;;;5009119;28;20942;-41
2021/12/03 09:31:24;;;;;;;31.27;15.30;;;1.90;99.90;;;;;;5006716;28;20210;-41
2021/12/03 09:33:51;;;;;;;27.67;16.33;;;1.90;99.90;;;;;;5004388;28;20232;-42
2021/12/03 09:36:19;;;;;;;25.47;15.60;;;1.90;99.90;;;;;;4996600;28;20240;-41
2021/12/03 09:38:46;;;;;;;29.60;15.90;;;1.90;99.90;;;;;;5013412;28;20315;-41
2021/12/03 09:41:15;;;;;;;30.27;15.53;;;1.90;99.90;;;;;;4983172;28;20203;-41
2021/12/03 09:43:45;;;;;;;25.57;15.30;;;2.00;99.90;;;;;;5015821;28;20700;-41
2021/12/03 09:46:17;;;;;;;29.77;15.73;;;2.00;99.90;;;;;;5004386;28;20271;-41
2021/12/03 09:48:56;;;;;;;19.97;13.00;;;2.00;99.90;;;;;;5006179;28;20238;-41
2021/12/03 09:51:24;;;;;;;23.47;13.53;;;2.00;99.90;;;;;;5010813;28;20206;-41
2021/12/03 09:56:38;;;;;;;22.30;13.77;;;2.00;99.90;;;;;;4974128;28;20234;-41
2021/12/03 10:01:57;;;;;;;20.90;12.33;;;2.10;99.90;;;;;;4990531;28;20825;-42
2021/12/03 10:12:52;;;;;;;20.03;12.93;;;2.20;99.90;;;;;;5010945;28;20301;-41
2021/12/03 10:15:24;;;;;;;22.67;13.30;;;2.20;99.90;;;;;;5001697;28;20207;-41
2021/12/03 10:17:59;;;;;;;23.37;13.33;;;2.30;99.90;;;;;;4988196;28;20215;-41
2021/12/03 10:20:36;;;;;;;22.33;13.73;;;2.30;99.90;;;;;;5010747;28;20230;-42
2021/12/03 10:34:57;;;;;;;24.67;13.00;;;2.40;99.90;;;;;;5004779;28;20239;-41
2021/12/03 10:37:52;;;;;;;24.57;13.40;;;2.30;99.90;;;;;;5008856;28;20214;-41
2021/12/03 10:40:34;;;;;;;23.17;12.83;;;2.30;99.90;;;;;;4992906;28;20212;-41
2021/12/03 10:46:10;;;;;;;25.83;13.77;;;2.40;99.90;;;;;;4972221;28;20298;-41
2021/12/03 10:48:48;;;;;;;29.07;14.17;;;2.40;99.90;;;;;;4986388;28;20207;-42
2021/12/03 10:51:28;;;;;;;27.63;13.50;;;2.40;99.90;;;;;;5011334;28;20206;-41
2021/12/03 10:53:59;;;;;;;28.60;14.07;;;2.40;99.90;;;;;;5007414;28;20231;-42
2021/12/03 10:57:09;;;;;;;34.43;15.50;;;2.50;99.90;;;;;;4999167;28;20617;-41
2021/12/03 10:59:52;;;;;;;29.50;15.03;;;2.50;99.90;;;;;;4992938;28;20194;-41
2021/12/03 13:11:18;;;;;;;21.90;9.17;;;3.00;99.90;;;;;;5002584;28;21183;-40
2021/12/03 13:57:18;;;;;;;16.20;6.73;;;2.80;99.90;;;;;;4994582;28;20311;-40
2021/12/03 14:39:28;;;;;;;5.80;3.97;;;2.90;99.90;;;;;;4881666;28;20208;-45
2021/12/03 14:42:05;;;;;;;9.20;4.17;;;2.90;99.90;;;;;;4971866;28;20220;-44
2021/12/03 14:44:56;;;;;;;11.37;4.40;;;2.90;99.90;;;;;;4984874;28;20227;-45
2021/12/03 14:55:44;;;;;;;4.27;3.10;;;2.90;99.90;;;;;;4961352;28;20299;-45
2021/12/03 14:58:15;;;;;;;9.60;3.70;;;2.90;99.90;;;;;;4980148;28;20211;-45
2021/12/03 15:00:50;;;;;;;5.60;3.43;;;3.00;99.90;;;;;;4990392;28;21451;-44
2021/12/03 15:03:40;;;;;;;7.43;4.17;;;3.00;99.90;;;;;;4989956;28;20254;-45
2021/12/03 15:06:18;;;;;;;7.80;3.87;;;3.00;99.90;;;;;;4966036;28;20216;-45
2021/12/03 15:08:52;;;;;;;9.63;4.10;;;3.00;99.90;;;;;;5000004;28;20505;-44
2021/12/03 15:25:27;;;;;;;9.70;4.70;;;3.10;99.90;;;;;;4977659;28;20223;-44
2021/12/03 15:28:23;;;;;;;7.63;5.07;;;3.10;99.90;;;;;;4966147;28;20216;-44
2021/12/03 15:31:01;;;;;;;7.80;4.73;;;3.10;99.90;;;;;;4979567;28;20577;-44
2021/12/03 15:33:37;;;;;;;6.90;4.17;;;3.10;99.90;;;;;;4991248;28;20232;-44
2021/12/03 15:36:07;;;;;;;11.10;4.97;;;3.00;99.90;;;;;;4977064;28;20219;-46
2021/12/03 15:55:33;;;;;;;9.00;5.53;;;3.20;99.90;;;;;;4981815;28;21359;-44
2021/12/03 15:58:11;;;;;;;9.23;4.97;;;3.20;99.90;;;;;;4992799;28;20217;-44
2021/12/03 16:03:35;;;;;;;13.60;7.57;;;3.20;99.90;;;;;;4990958;28;20688;-44
2021/12/03 16:06:26;;;;;;;12.63;7.50;;;3.20;99.90;;;;;;4978311;28;20307;-45
2021/12/03 16:08:56;;;;;;;9.87;7.43;;;3.20;99.90;;;;;;4983226;28;20299;-44
2021/12/03 16:11:28;;;;;;;11.10;6.93;;;3.20;99.90;;;;;;4997884;28;20239;-44
2021/12/03 16:14:08;;;;;;;13.43;7.80;;;3.30;99.90;;;;;;4983655;28;20232;-44
2021/12/03 16:19:34;;;;;;;14.60;8.33;;;3.30;99.90;;;;;;4986812;28;20266;-44
2021/12/03 16:22:24;;;;;;;14.60;7.70;;;3.30;99.90;;;;;;4966725;28;20299;-45
2021/12/03 16:47:08;;;;;;;13.63;7.93;;;3.50;99.90;;;;;;4968534;28;20798;-42
2021/12/03 16:50:03;;;;;;;12.57;7.30;;;3.40;99.90;;;;;;4971358;28;20298;-42
2021/12/03 16:52:31;;;;;;;17.87;8.40;;;3.50;99.90;;;;;;4960326;28;20951;-42
2021/12/03 16:54:59;;;;;;;12.77;7.50;;;3.50;99.90;;;;;;4970119;28;20226;-42
2021/12/03 16:57:31;;;;;;;13.07;7.63;;;3.50;99.90;;;;;;4974506;28;20223;-42
2021/12/03 17:00:01;;;;;;;11.07;6.70;;;3.50;99.90;;;;;;4986823;28;20242;-42
2021/12/03 17:02:35;;;;;;;14.57;6.93;;;3.50;99.90;;;;;;4991738;28;20237;-42
2021/12/03 17:13:54;;;;;;;8.00;5.77;;;3.60;99.90;;;;;;4931517;28;21223;-42
2021/12/03 17:16:46;;;;;;;10.10;6.43;;;3.60;99.90;;;;;;4988488;28;20213;-41
2021/12/03 17:44:49;;;;;;;7.33;6.10;;;3.70;99.90;;;;;;5005348;28;20662;-39
2021/12/03 17:53:25;;;;;;;7.93;5.33;;;3.70;99.90;;;;;;5061212;28;20482;-39
2021/12/03 17:56:09;;;;;;;6.13;5.53;;;3.70;99.90;;;;;;5044507;28;20716;-39
2021/12/03 17:58:38;;;;;;;7.83;5.73;;;3.80;99.90;;;;;;5040884;28;20216;-39
2021/12/03 18:01:11;;;;;;;6.60;5.57;;;3.80;99.90;;;;;;5033374;28;20238;-39
2021/12/03 18:03:44;;;;;;;7.27;5.70;;;3.80;99.90;;;;;;5039088;28;20263;-39
2021/12/03 18:08:58;;;;;;;7.70;5.90;;;3.80;99.90;;;;;;5051981;28;20233;-39
2021/12/03 18:17:33;;;;;;;7.63;5.90;;;3.80;99.90;;;;;;4942773;28;20210;-39
2021/12/03 18:45:04;;;;;;;7.57;6.87;;;3.90;99.90;;;;;;5025932;28;21603;-39
2021/12/03 18:47:57;;;;;;;8.47;7.00;;;3.80;99.90;;;;;;5010270;28;21396;-39
2021/12/03 18:50:50;;;;;;;9.63;7.47;;;3.90;99.90;;;;;;5016360;28;20417;-39
2021/12/03 18:53:39;;;;;;;11.33;7.17;;;3.90;99.90;;;;;;5016273;28;22295;-40
2021/12/03 18:56:13;;;;;;;7.43;6.57;;;3.90;99.90;;;;;;5028778;28;20217;-40
2021/12/03 18:58:40;;;;;;;9.00;7.30;;;3.90;99.90;;;;;;5003310;28;20220;-40
2021/12/03 19:01:11;;;;;;;8.50;7.27;;;3.90;99.90;;;;;;5035744;28;20237;-40
2021/12/03 19:03:50;;;;;;;9.67;7.50;;;3.90;99.90;;;;;;5016154;28;20223;-39
2021/12/03 19:06:22;;;;;;;10.07;7.50;;;4.00;99.90;;;;;;5030580;28;20204;-39
2021/12/03 19:08:51;;;;;;;9.53;7.80;;;4.00;99.90;;;;;;5024946;28;20223;-39
2021/12/03 19:11:22;;;;;;;15.33;8.27;;;3.90;99.90;;;;;;5017769;28;20214;-39
2021/12/03 19:13:51;;;;;;;11.03;9.10;;;3.90;99.90;;;;;;5016008;28;20326;-39
2021/12/03 19:16:23;;;;;;;10.30;8.10;;;4.00;99.90;;;;;;5023089;28;20250;-39
2021/12/03 19:18:52;;;;;;;11.53;8.73;;;4.00;99.90;;;;;;5013462;28;20228;-39
2021/12/03 19:21:23;;;;;;;16.57;9.57;;;4.00;99.90;;;;;;5038866;28;20294;-39
2021/12/03 19:23:51;;;;;;;12.17;8.77;;;4.00;99.90;;;;;;5042042;28;20257;-39
2021/12/03 19:26:20;;;;;;;12.90;9.90;;;4.00;99.90;;;;;;5035108;28;20675;-39
2021/12/03 19:28:47;;;;;;;13.73;9.77;;;4.00;99.90;;;;;;5009220;28;20220;-39